Bella Vista, California
Current Conditions -  °F | °C
As of 8:53 PM on Monday 20 Oct 2014 (Local Time) from KRDD Reporting Station
Broken Clouds Broken Clouds  
Wind Chill: 55°   Ceiling: 9500
Heat Index: 55°   Visibility: 10mi
Dew Point: 52°   Wind: 6mph
Humidity: 89%   Direction: 20°NNE
Pressure: 29.93"   Gusts: NA
Location:  40.64°N, 122.23°W
Report Text: KRDD 210353Z 02005KT 10SM BKN095 13/11 A2993 RMK AO2 RAB29E38 SLP132 P0000 T01280111
Loading
Personal Weather Stations






























Interactive Weather Map
Tropical Storm Tracking
New forecast layout! Learn more

10-Day Weather Forecast

Advertisements
Track Severe Weather on mobile